createdAt,value
2023-03-12T00:00:22.264Z,7.10
2023-03-12T00:02:49.706Z,7.72
2023-03-12T00:05:17.218Z,7.32
2023-03-12T00:07:44.518Z,5.88
2023-03-12T00:10:12.208Z,6.43
2023-03-12T00:12:39.471Z,5.22
2023-03-12T00:15:07.420Z,6.03
2023-03-12T00:17:34.701Z,6.15
2023-03-12T00:20:01.999Z,5.88
2023-03-12T00:22:29.301Z,5.57
2023-03-12T00:24:57.269Z,5.82
2023-03-12T00:27:25.771Z,6.05
2023-03-12T00:29:53.550Z,5.68
2023-03-12T00:32:21.427Z,5.50
2023-03-12T00:34:53.288Z,5.23
2023-03-12T00:37:20.861Z,6.00
2023-03-12T00:39:48.236Z,5.28
2023-03-12T00:42:15.735Z,5.90
2023-03-12T00:44:44.246Z,5.18
2023-03-12T00:47:11.822Z,5.57
2023-03-12T00:49:39.126Z,5.43
2023-03-12T00:52:06.532Z,5.38
2023-03-12T00:54:33.850Z,5.88
2023-03-12T00:57:01.247Z,6.18
2023-03-12T00:59:28.889Z,6.68
2023-03-12T01:01:56.367Z,5.85
2023-03-12T01:04:23.980Z,5.63
2023-03-12T01:06:51.424Z,5.28
2023-03-12T01:09:19.205Z,5.85
2023-03-12T01:11:46.501Z,5.72
2023-03-12T01:14:13.777Z,6.07
2023-03-12T01:16:41.120Z,6.32
2023-03-12T01:19:08.467Z,6.28
2023-03-12T01:21:35.785Z,7.55
2023-03-12T01:24:03.389Z,5.90
2023-03-12T01:26:30.843Z,7.28
2023-03-12T01:28:58.405Z,6.57
2023-03-12T01:31:26.169Z,6.03
2023-03-12T01:33:53.990Z,6.20
2023-03-12T01:36:25.768Z,5.90
2023-03-12T01:38:54.025Z,5.65
2023-03-12T01:41:21.969Z,6.82
2023-03-12T01:43:49.498Z,7.68
2023-03-12T01:46:20.077Z,6.10
2023-03-12T01:48:50.355Z,6.65
2023-03-12T01:51:18.552Z,7.25
2023-03-12T01:53:47.467Z,7.47
2023-03-12T01:56:16.201Z,6.18
2023-03-12T01:58:45.941Z,8.45
2023-03-12T02:01:13.803Z,7.38
2023-03-12T02:03:41.644Z,6.60
2023-03-12T02:06:12.309Z,7.03
2023-03-12T02:08:42.111Z,5.97
2023-03-12T02:11:09.562Z,5.45
2023-03-12T02:13:37.938Z,5.25
2023-03-12T02:16:05.537Z,6.72
2023-03-12T02:18:34.617Z,5.13
2023-03-12T02:21:04.925Z,5.28
2023-03-12T02:23:44.482Z,5.15
2023-03-12T02:26:12.458Z,5.25
2023-03-12T02:28:44.036Z,4.95
2023-03-12T02:31:13.822Z,4.90
2023-03-12T02:33:43.416Z,5.18
2023-03-12T02:36:11.116Z,5.25
2023-03-12T02:38:44.329Z,5.93
2023-03-12T02:41:22.792Z,5.50
2023-03-12T02:44:02.062Z,5.82
2023-03-12T02:46:31.060Z,5.03
2023-03-12T02:48:58.840Z,5.32
2023-03-12T02:51:26.199Z,5.22
2023-03-12T02:53:55.122Z,4.80
2023-03-12T02:56:27.568Z,5.28
2023-03-12T02:58:55.071Z,4.90
2023-03-12T03:01:24.109Z,5.55
2023-03-12T03:03:51.652Z,5.43
2023-03-12T03:06:19.278Z,4.60
2023-03-12T03:08:46.702Z,5.15
2023-03-12T03:11:16.387Z,5.63
2023-03-12T03:13:43.672Z,4.95
2023-03-12T03:16:13.566Z,4.65
2023-03-12T03:18:41.040Z,5.22
2023-03-12T03:21:09.872Z,4.97
2023-03-12T03:23:37.944Z,5.30
2023-03-12T03:26:05.386Z,4.40
2023-03-12T03:28:32.706Z,4.72
2023-03-12T03:31:02.063Z,4.78
2023-03-12T03:33:35.200Z,5.75
2023-03-12T03:36:03.814Z,4.53
2023-03-12T03:38:37.462Z,5.88
2023-03-12T03:41:05.386Z,4.25
2023-03-12T03:43:35.932Z,4.22
2023-03-12T03:46:04.619Z,4.78
2023-03-12T03:48:35.417Z,4.65
2023-03-12T03:51:03.317Z,5.90
2023-03-12T03:53:32.895Z,5.18
2023-03-12T03:56:05.988Z,4.68
2023-03-12T03:58:34.347Z,4.13
2023-03-12T04:01:01.928Z,3.72
2023-03-12T04:03:29.737Z,4.38
2023-03-12T04:05:58.066Z,4.22
2023-03-12T04:08:25.933Z,4.63
2023-03-12T04:10:53.887Z,4.55
2023-03-12T04:13:22.012Z,4.05
2023-03-12T04:15:50.529Z,4.45
2023-03-12T04:18:18.732Z,3.75
2023-03-12T04:20:46.669Z,3.78
2023-03-12T04:23:13.928Z,4.25
2023-03-12T04:25:41.317Z,4.93
2023-03-12T04:28:08.680Z,4.20
2023-03-12T04:30:38.487Z,3.83
2023-03-12T04:33:06.919Z,3.58
2023-03-12T04:35:35.108Z,4.13
2023-03-12T04:38:04.057Z,5.47
2023-03-12T04:40:33.458Z,4.13
2023-03-12T04:43:00.929Z,4.30
2023-03-12T04:45:30.520Z,4.47
2023-03-12T04:47:58.032Z,4.10
2023-03-12T04:50:25.650Z,3.90
2023-03-12T04:52:53.103Z,4.53
2023-03-12T04:55:20.614Z,5.25
2023-03-12T04:57:48.249Z,4.53
2023-03-12T05:00:17.606Z,5.20
2023-03-12T05:02:46.837Z,4.47
2023-03-12T05:05:14.416Z,5.35
2023-03-12T05:07:42.418Z,5.80
2023-03-12T05:10:10.085Z,4.68
2023-03-12T05:12:37.637Z,5.30
2023-03-12T05:15:05.860Z,5.78
2023-03-12T05:17:33.438Z,5.00
2023-03-12T05:20:01.039Z,6.38
2023-03-12T05:22:28.519Z,5.57
2023-03-12T05:24:55.871Z,5.70
2023-03-12T05:27:26.116Z,7.05
2023-03-12T05:29:55.470Z,5.47
2023-03-12T05:32:23.440Z,5.95
2023-03-12T05:34:51.180Z,5.82
2023-03-12T05:37:18.589Z,6.13
2023-03-12T05:39:49.168Z,5.97
2023-03-12T05:42:17.773Z,6.22
2023-03-12T05:44:45.372Z,4.90
2023-03-12T05:47:23.787Z,6.00
2023-03-12T05:49:51.348Z,6.68
2023-03-12T05:52:18.772Z,6.45
2023-03-12T05:54:46.114Z,6.40
2023-03-12T05:57:13.472Z,5.65
2023-03-12T05:59:41.607Z,8.20
2023-03-12T06:02:09.833Z,8.07
2023-03-12T06:04:37.996Z,6.68
2023-03-12T06:07:05.948Z,6.45
2023-03-12T06:09:34.916Z,5.78
2023-03-12T06:12:02.308Z,7.45
2023-03-12T06:14:30.531Z,7.82
2023-03-12T06:16:58.673Z,7.03
2023-03-12T06:19:26.059Z,8.20
2023-03-12T06:21:53.599Z,7.40
2023-03-12T06:24:21.046Z,8.43
2023-03-12T06:26:51.127Z,7.43
2023-03-12T06:29:18.519Z,7.53
2023-03-12T06:31:46.980Z,7.53
2023-03-12T06:34:16.775Z,5.27
2023-03-12T06:36:44.126Z,6.97
2023-03-12T06:39:11.429Z,8.82
2023-03-12T06:41:38.814Z,7.35
2023-03-12T06:44:06.623Z,7.82
2023-03-12T06:46:34.348Z,8.90
2023-03-12T06:49:01.676Z,8.55
2023-03-12T06:51:29.104Z,7.40
2023-03-12T06:53:56.402Z,9.55
2023-03-12T06:56:23.692Z,7.53
2023-03-12T06:58:51.016Z,8.75
2023-03-12T07:01:18.520Z,8.68
2023-03-12T07:03:46.007Z,9.40
2023-03-12T07:06:14.293Z,8.57
2023-03-12T07:08:41.640Z,10.40
2023-03-12T07:11:08.939Z,8.93
2023-03-12T07:13:36.568Z,8.40
2023-03-12T07:16:03.983Z,9.88
2023-03-12T07:18:31.286Z,8.57
2023-03-12T07:20:58.626Z,10.23
2023-03-12T07:23:25.954Z,8.55
2023-03-12T07:25:53.624Z,10.55
2023-03-12T07:28:21.473Z,10.32
2023-03-12T07:30:50.694Z,10.07
2023-03-12T07:35:51.484Z,10.13
2023-03-12T07:38:19.250Z,10.38
2023-03-12T07:40:50.748Z,11.38
2023-03-12T07:43:20.334Z,10.93
2023-03-12T07:45:49.776Z,12.07
2023-03-12T07:48:19.567Z,10.10
2023-03-12T07:50:46.954Z,12.43
2023-03-12T07:53:14.258Z,13.48
2023-03-12T07:55:44.485Z,13.50
2023-03-12T07:58:13.027Z,14.15
2023-03-12T08:00:40.380Z,13.75
2023-03-12T08:03:07.969Z,14.00
2023-03-12T08:05:35.449Z,14.18
2023-03-12T08:08:02.768Z,12.65
2023-03-12T08:10:30.295Z,14.63
2023-03-12T08:12:57.633Z,14.98
2023-03-12T08:15:25.443Z,14.82
2023-03-12T08:17:52.822Z,14.90
2023-03-12T08:20:20.253Z,17.40
2023-03-12T08:22:47.719Z,14.48
2023-03-12T08:25:16.030Z,15.20
2023-03-12T08:27:43.373Z,16.25
2023-03-12T08:30:11.084Z,16.65
2023-03-12T08:32:38.600Z,16.73
2023-03-12T08:35:06.207Z,17.83
2023-03-12T08:37:33.609Z,18.08
2023-03-12T08:40:01.048Z,18.02
2023-03-12T08:42:28.442Z,17.27
2023-03-12T08:44:55.734Z,20.27
2023-03-12T08:47:23.032Z,21.60
2023-03-12T08:49:50.289Z,22.08
2023-03-12T08:52:17.616Z,21.63
2023-03-12T08:54:44.903Z,22.88
2023-03-12T08:57:12.229Z,23.05
2023-03-12T08:59:39.893Z,27.50
2023-03-12T09:02:07.768Z,25.98
2023-03-12T09:04:35.424Z,25.55
2023-03-12T09:07:02.699Z,24.27
2023-03-12T09:09:30.179Z,29.15
2023-03-12T09:11:57.512Z,28.98
2023-03-12T09:17:12.073Z,29.50
2023-03-12T09:19:40.225Z,31.83
2023-03-12T09:22:07.624Z,29.85
2023-03-12T09:24:34.917Z,32.40
2023-03-12T09:27:03.061Z,30.25
2023-03-12T09:29:30.810Z,30.70
2023-03-12T09:31:58.096Z,34.78
2023-03-12T09:34:25.399Z,31.15
2023-03-12T09:36:52.686Z,32.28
2023-03-12T09:39:20.923Z,32.83
2023-03-12T09:41:48.918Z,30.08
2023-03-12T09:44:27.437Z,32.88
2023-03-12T09:46:56.769Z,25.55
2023-03-12T09:49:36.093Z,27.83
2023-03-12T09:54:47.412Z,26.17
2023-03-12T09:57:22.653Z,27.70
2023-03-12T09:59:50.956Z,27.15
2023-03-12T10:02:24.830Z,26.85
2023-03-12T10:05:13.577Z,26.05
2023-03-12T10:07:51.220Z,23.20
2023-03-12T10:10:40.720Z,23.48
2023-03-12T10:13:11.410Z,14.73
2023-03-12T10:15:48.134Z,12.50
2023-03-12T10:18:28.455Z,13.20
2023-03-12T10:21:09.020Z,12.90
2023-03-12T10:23:54.167Z,10.55
2023-03-12T10:26:32.185Z,11.68
2023-03-12T10:29:19.849Z,11.88
2023-03-12T10:32:08.429Z,12.35
2023-03-12T10:34:41.144Z,9.77
2023-03-12T10:37:27.291Z,12.00
2023-03-12T10:39:55.782Z,12.73
2023-03-12T10:42:24.509Z,15.40
2023-03-12T10:44:53.003Z,14.18
2023-03-12T10:47:29.618Z,13.60
2023-03-12T10:50:11.862Z,13.38
2023-03-12T10:52:39.328Z,13.77
2023-03-12T10:55:33.013Z,13.98
2023-03-12T10:58:00.353Z,11.98
2023-03-12T11:00:28.767Z,11.45
2023-03-12T11:03:03.703Z,13.57
2023-03-12T11:05:32.741Z,12.70
2023-03-12T11:08:01.749Z,13.65
2023-03-12T11:10:42.237Z,12.35
2023-03-12T11:13:36.357Z,12.52
2023-03-12T11:16:25.042Z,12.52
2023-03-12T11:18:57.053Z,12.55
2023-03-12T11:21:24.364Z,13.98
2023-03-12T11:23:57.832Z,10.05
2023-03-12T11:26:27.311Z,12.82
2023-03-12T11:29:06.469Z,12.60
2023-03-12T11:31:39.582Z,10.88
2023-03-12T11:34:08.968Z,13.38
2023-03-12T11:39:12.471Z,10.48
2023-03-12T11:41:39.947Z,13.82
2023-03-12T11:44:07.363Z,12.73
2023-03-12T11:46:34.772Z,9.25
2023-03-12T11:49:12.478Z,12.00
2023-03-12T11:51:46.383Z,11.45
2023-03-12T11:54:16.844Z,12.20
2023-03-12T11:56:52.464Z,10.75
2023-03-12T11:59:38.527Z,11.63
2023-03-12T12:02:18.142Z,12.52
2023-03-12T12:04:54.765Z,9.60
2023-03-12T12:07:41.033Z,12.07
2023-03-12T12:10:15.554Z,9.30
2023-03-12T12:12:42.892Z,11.27
2023-03-12T12:15:19.103Z,9.02
2023-03-12T12:17:55.288Z,9.25
2023-03-12T12:20:26.781Z,10.52
2023-03-12T12:23:13.369Z,9.15
2023-03-12T12:25:41.207Z,7.55
2023-03-12T12:28:08.667Z,8.32
2023-03-12T12:30:56.372Z,8.40
2023-03-12T12:33:44.330Z,9.52
2023-03-12T12:36:11.786Z,9.45
2023-03-12T12:38:52.510Z,7.50
2023-03-12T12:41:22.596Z,8.10
2023-03-12T12:44:01.882Z,7.75
2023-03-12T12:48:59.838Z,6.90
2023-03-12T12:51:38.682Z,8.57
2023-03-12T12:54:16.222Z,8.07
2023-03-12T12:56:43.538Z,7.63
2023-03-12T12:59:17.081Z,6.97
2023-03-12T13:01:44.861Z,7.80
2023-03-12T13:04:14.045Z,8.30
2023-03-12T13:07:00.245Z,6.72
2023-03-12T13:09:41.974Z,7.78
2023-03-12T13:12:28.316Z,6.47
2023-03-12T13:14:56.674Z,7.57
2023-03-12T13:17:29.251Z,5.60
2023-03-12T13:20:12.295Z,5.63
2023-03-12T13:22:39.828Z,6.20
2023-03-12T13:25:16.488Z,7.72
2023-03-12T13:27:46.436Z,5.13
2023-03-12T13:30:32.607Z,6.65
2023-03-12T13:33:02.938Z,6.22
2023-03-12T13:35:32.302Z,7.78
2023-03-12T13:38:01.947Z,7.38
2023-03-12T13:43:08.914Z,6.07
2023-03-12T13:45:48.621Z,6.35
2023-03-12T13:48:17.532Z,7.72
2023-03-12T13:50:52.183Z,4.70
2023-03-12T13:53:28.663Z,6.68
2023-03-12T13:56:07.743Z,7.80
2023-03-12T13:59:01.543Z,5.05
2023-03-12T14:01:33.234Z,6.00
2023-03-12T14:04:02.858Z,5.85
2023-03-12T14:06:31.795Z,5.55
2023-03-12T14:09:05.005Z,6.18
2023-03-12T14:11:38.506Z,5.90
2023-03-12T14:14:24.638Z,6.10
2023-03-12T14:16:53.177Z,5.75
2023-03-12T14:19:24.892Z,4.70
2023-03-12T14:21:52.982Z,6.28
2023-03-12T14:24:20.381Z,4.68
2023-03-12T14:26:47.806Z,3.70
2023-03-12T14:29:21.392Z,6.07
2023-03-12T14:31:49.524Z,5.45
2023-03-12T14:34:24.149Z,5.00
2023-03-12T14:36:58.874Z,6.93
2023-03-12T14:39:37.501Z,6.15
2023-03-12T14:42:06.121Z,5.82
2023-03-12T14:44:34.320Z,5.70
2023-03-12T14:47:12.068Z,4.40
2023-03-12T14:49:41.229Z,4.90
2023-03-12T14:54:35.961Z,5.45
2023-03-12T14:57:03.332Z,5.45
2023-03-12T14:59:32.076Z,5.75
2023-03-12T15:02:12.671Z,6.20
2023-03-12T15:04:41.092Z,5.68
2023-03-12T15:07:11.399Z,7.37
2023-03-12T15:09:41.290Z,5.32
2023-03-12T15:12:17.946Z,7.95
2023-03-12T15:14:45.601Z,5.90
2023-03-12T15:17:17.535Z,6.20
2023-03-12T15:19:45.097Z,7.35
2023-03-12T15:22:16.251Z,6.82
2023-03-12T15:24:44.151Z,6.00
2023-03-12T15:27:32.106Z,7.10
2023-03-12T15:30:00.542Z,6.45
2023-03-12T15:32:30.599Z,6.53
2023-03-12T15:34:59.879Z,7.85
2023-03-12T15:37:32.736Z,6.40
2023-03-12T15:40:02.221Z,5.85
2023-03-12T15:42:29.945Z,5.53
2023-03-12T15:45:03.368Z,6.78
2023-03-12T15:47:32.676Z,7.85
2023-03-12T15:50:01.970Z,5.65
2023-03-12T15:55:04.666Z,7.60
2023-03-12T15:57:34.385Z,6.07
2023-03-12T16:00:14.887Z,5.43
2023-03-12T16:02:57.531Z,6.80
2023-03-12T16:05:36.110Z,6.35
2023-03-12T16:08:25.919Z,6.30
2023-03-12T16:10:54.553Z,5.93
2023-03-12T16:13:23.613Z,6.55
2023-03-12T16:15:51.048Z,4.97
2023-03-12T16:18:20.144Z,7.15
2023-03-12T16:23:15.780Z,5.43
2023-03-12T16:25:45.522Z,6.28
2023-03-12T16:28:14.989Z,7.35
2023-03-12T16:30:42.487Z,8.02
2023-03-12T16:33:14.157Z,8.35
2023-03-12T16:35:42.036Z,7.28
2023-03-12T16:38:09.596Z,6.60
2023-03-12T16:40:38.634Z,6.03
2023-03-12T16:43:07.985Z,6.70
2023-03-12T16:45:36.369Z,7.47
2023-03-12T16:48:07.254Z,6.13
2023-03-12T16:50:34.705Z,7.30
2023-03-12T16:53:03.608Z,6.97
2023-03-12T16:55:32.669Z,8.88
2023-03-12T16:58:01.484Z,8.25
2023-03-12T17:00:30.527Z,8.48
2023-03-12T17:02:59.019Z,7.30
2023-03-12T17:05:27.015Z,9.18
2023-03-12T17:07:54.741Z,7.72
2023-03-12T17:10:22.722Z,9.52
2023-03-12T17:12:50.452Z,8.38
2023-03-12T17:15:22.706Z,10.27
2023-03-12T17:17:50.745Z,6.15
2023-03-12T17:20:23.822Z,7.20
2023-03-12T17:22:51.404Z,9.98
2023-03-12T17:25:23.799Z,6.63
2023-03-12T17:27:51.445Z,8.70
2023-03-12T17:30:19.214Z,7.10
2023-03-12T17:32:46.801Z,9.43
2023-03-12T17:35:14.463Z,6.28
2023-03-12T17:37:41.814Z,6.90
2023-03-12T17:40:10.015Z,5.82
2023-03-12T17:42:38.175Z,6.13
2023-03-12T17:45:06.586Z,3.80
2023-03-12T17:47:34.535Z,4.72
2023-03-12T17:50:02.136Z,3.35
2023-03-12T17:52:29.456Z,2.92
2023-03-12T17:54:56.861Z,3.40
2023-03-12T17:57:25.082Z,2.58
2023-03-12T17:59:52.353Z,3.20
2023-03-12T18:02:19.674Z,3.60
2023-03-12T18:04:47.316Z,4.07
2023-03-12T18:07:15.074Z,2.83
2023-03-12T18:09:42.443Z,2.72
2023-03-12T18:12:11.247Z,2.92
2023-03-12T18:14:38.745Z,3.70
2023-03-12T18:17:06.097Z,3.25
2023-03-12T18:19:35.279Z,3.70
2023-03-12T18:22:02.992Z,4.38
2023-03-12T18:24:30.553Z,4.57
2023-03-12T18:26:59.303Z,3.90
2023-03-12T18:29:27.028Z,4.85
2023-03-12T18:31:54.420Z,2.75
2023-03-12T18:34:23.490Z,3.83
2023-03-12T18:36:51.044Z,5.63
2023-03-12T18:39:18.654Z,3.95
2023-03-12T18:41:46.096Z,3.67
2023-03-12T18:44:13.495Z,9.57
2023-03-12T18:46:41.083Z,4.70
2023-03-12T18:49:09.324Z,4.10
2023-03-12T18:51:36.776Z,4.18
2023-03-12T18:54:04.255Z,6.38
2023-03-12T18:56:31.623Z,5.35
2023-03-12T18:58:58.916Z,5.80
2023-03-12T19:01:26.452Z,6.20
2023-03-12T19:03:53.811Z,4.68
2023-03-12T19:06:21.375Z,4.95
2023-03-12T19:08:48.662Z,20.73
2023-03-12T19:11:16.765Z,23.92
2023-03-12T19:13:44.365Z,8.07
2023-03-12T19:16:12.843Z,4.55
2023-03-12T19:18:40.342Z,7.47
2023-03-12T19:21:08.520Z,6.07
2023-03-12T19:23:36.547Z,6.28
2023-03-12T19:26:04.261Z,4.30
2023-03-12T19:28:31.741Z,5.90
2023-03-12T19:31:02.822Z,3.75
2023-03-12T19:33:30.410Z,5.47
2023-03-12T19:35:58.062Z,4.88
2023-03-12T19:38:26.489Z,3.47
2023-03-12T19:40:55.592Z,5.18
2023-03-12T19:43:23.486Z,4.50
2023-03-12T19:45:51.092Z,3.15
2023-03-12T19:48:18.423Z,4.20
2023-03-12T19:50:45.815Z,3.40
2023-03-12T19:53:13.926Z,3.47
2023-03-12T19:55:41.258Z,3.30
2023-03-12T19:58:08.591Z,3.58
2023-03-12T20:00:36.587Z,3.67
2023-03-12T20:03:05.141Z,5.65
2023-03-12T20:05:32.561Z,3.58
2023-03-12T20:07:59.885Z,3.55
2023-03-12T20:10:29.401Z,4.05
2023-03-12T20:12:56.716Z,3.85
2023-03-12T20:15:24.087Z,4.50
2023-03-12T20:17:54.667Z,3.55
2023-03-12T20:20:22.092Z,5.00
2023-03-12T20:22:49.520Z,6.38
2023-03-12T20:25:16.941Z,4.65
2023-03-12T20:27:44.819Z,6.38
2023-03-12T20:30:12.580Z,6.43
2023-03-12T20:32:40.037Z,5.05
2023-03-12T20:35:10.008Z,7.03
2023-03-12T20:37:37.581Z,6.65
2023-03-12T20:40:05.401Z,6.47
2023-03-12T20:42:32.770Z,4.45
2023-03-12T20:45:00.354Z,6.30
2023-03-12T20:47:28.589Z,7.23
2023-03-12T20:49:56.027Z,7.18
2023-03-12T20:52:23.476Z,6.57
2023-03-12T20:54:51.166Z,7.75
2023-03-12T20:57:18.482Z,6.85
2023-03-12T20:59:45.804Z,5.25
2023-03-12T21:02:14.186Z,6.53
2023-03-12T21:04:42.345Z,6.00
2023-03-12T21:07:09.809Z,7.47
2023-03-12T21:09:37.409Z,5.93
2023-03-12T21:12:04.809Z,5.70
2023-03-12T21:14:32.234Z,6.18
2023-03-12T21:16:59.703Z,6.75
2023-03-12T21:19:29.995Z,4.47
2023-03-12T21:21:57.342Z,5.57
2023-03-12T21:24:24.649Z,7.10
2023-03-12T21:26:52.510Z,5.18
2023-03-12T21:29:19.833Z,5.25
2023-03-12T21:31:47.153Z,6.03
2023-03-12T21:34:14.556Z,5.75
2023-03-12T21:36:42.040Z,4.45
2023-03-12T21:39:09.320Z,5.30
2023-03-12T21:41:37.159Z,5.18
2023-03-12T21:44:04.650Z,5.25
2023-03-12T21:46:32.092Z,6.15
2023-03-12T21:48:59.446Z,4.30
2023-03-12T21:51:27.013Z,5.70
2023-03-12T21:53:55.351Z,6.68
2023-03-12T21:56:22.757Z,7.13
2023-03-12T21:58:50.085Z,5.43
2023-03-12T22:01:18.905Z,5.78
2023-03-12T22:03:46.773Z,6.63
2023-03-12T22:06:14.839Z,6.97
2023-03-12T22:08:42.920Z,5.88
2023-03-12T22:11:10.846Z,6.70
2023-03-12T22:13:38.286Z,6.03
2023-03-12T22:16:07.784Z,6.82
2023-03-12T22:18:36.114Z,5.05
2023-03-12T22:21:07.787Z,5.85
2023-03-12T22:23:36.480Z,6.47
2023-03-12T22:26:05.494Z,5.53
2023-03-12T22:28:33.452Z,5.20
2023-03-12T22:31:05.377Z,7.35
2023-03-12T22:33:33.004Z,6.93
2023-03-12T22:36:00.494Z,8.02
2023-03-12T22:38:27.867Z,6.43
2023-03-12T22:40:55.973Z,7.38
2023-03-12T22:43:25.621Z,5.85
2023-03-12T22:45:56.025Z,7.82
2023-03-12T22:48:23.360Z,8.80
2023-03-12T22:50:54.841Z,8.60
2023-03-12T22:53:22.271Z,6.15
2023-03-12T22:55:59.678Z,7.78
2023-03-12T22:58:27.383Z,6.85
2023-03-12T23:01:06.264Z,8.93
2023-03-12T23:03:34.431Z,8.82
2023-03-12T23:06:02.082Z,7.32
2023-03-12T23:08:29.968Z,9.18
2023-03-12T23:10:59.029Z,6.93
2023-03-12T23:13:27.065Z,7.00
2023-03-12T23:15:54.989Z,9.13
2023-03-12T23:18:22.420Z,8.60
2023-03-12T23:20:57.917Z,8.43
2023-03-12T23:23:25.340Z,7.70
2023-03-12T23:25:53.706Z,9.57
2023-03-12T23:28:22.330Z,8.18
2023-03-12T23:31:00.313Z,7.53
2023-03-12T23:33:29.131Z,8.98
2023-03-12T23:35:56.623Z,6.97
2023-03-12T23:38:24.213Z,7.93
2023-03-12T23:40:51.553Z,8.23
2023-03-12T23:43:19.216Z,7.78
2023-03-12T23:45:46.946Z,8.88
2023-03-12T23:48:14.268Z,6.43
2023-03-12T23:50:41.648Z,8.35
2023-03-12T23:53:08.905Z,8.10
2023-03-12T23:55:36.230Z,6.57
2023-03-12T23:58:03.580Z,6.82
